sensor_id;sensor_type;location;lat;lon;timestamp;P1;durP1;ratioP1;P2;durP2;ratioP2
66145;SDS011;52948;60.040;30.320;2023-04-09T00:02:13;7.45;;;3.45;;
66145;SDS011;52948;60.040;30.320;2023-04-09T00:07:16;11.05;;;4.03;;
66145;SDS011;52948;60.040;30.320;2023-04-09T00:12:18;6.55;;;3.17;;
66145;SDS011;52948;60.040;30.320;2023-04-09T00:17:21;6.15;;;3.58;;
66145;SDS011;52948;60.040;30.320;2023-04-09T00:22:25;7.88;;;2.85;;
66145;SDS011;52948;60.040;30.320;2023-04-09T00:27:27;6.40;;;2.63;;
66145;SDS011;52948;60.040;30.320;2023-04-09T00:32:29;4.55;;;2.75;;
66145;SDS011;52948;60.040;30.320;2023-04-09T00:37:32;5.22;;;2.90;;
66145;SDS011;52948;60.040;30.320;2023-04-09T00:42:34;4.68;;;2.75;;
66145;SDS011;52948;60.040;30.320;2023-04-09T00:47:38;6.20;;;2.95;;
66145;SDS011;52948;60.040;30.320;2023-04-09T00:52:42;4.95;;;3.08;;
66145;SDS011;52948;60.040;30.320;2023-04-09T00:57:44;5.25;;;2.45;;
66145;SDS011;52948;60.040;30.320;2023-04-09T01:02:46;3.22;;;2.40;;
66145;SDS011;52948;60.040;30.320;2023-04-09T01:08:11;5.15;;;2.30;;
66145;SDS011;52948;60.040;30.320;2023-04-09T01:13:19;4.25;;;2.30;;
66145;SDS011;52948;60.040;30.320;2023-04-09T01:18:31;5.07;;;2.47;;
66145;SDS011;52948;60.040;30.320;2023-04-09T01:29:17;6.03;;;2.35;;
66145;SDS011;52948;60.040;30.320;2023-04-09T01:34:21;4.13;;;1.95;;
66145;SDS011;52948;60.040;30.320;2023-04-09T01:39:23;2.60;;;1.70;;
66145;SDS011;52948;60.040;30.320;2023-04-09T01:44:26;3.50;;;1.95;;
66145;SDS011;52948;60.040;30.320;2023-04-09T01:49:28;3.25;;;2.10;;
66145;SDS011;52948;60.040;30.320;2023-04-09T01:54:30;4.60;;;2.15;;
66145;SDS011;52948;60.040;30.320;2023-04-09T01:59:33;5.10;;;2.13;;
66145;SDS011;52948;60.040;30.320;2023-04-09T02:04:37;5.38;;;2.47;;
66145;SDS011;52948;60.040;30.320;2023-04-09T02:09:41;4.85;;;2.22;;
66145;SDS011;52948;60.040;30.320;2023-04-09T02:14:51;5.32;;;2.47;;
66145;SDS011;52948;60.040;30.320;2023-04-09T02:19:54;6.40;;;2.50;;
66145;SDS011;52948;60.040;30.320;2023-04-09T02:24:57;5.68;;;3.03;;
66145;SDS011;52948;60.040;30.320;2023-04-09T02:29:59;8.23;;;2.60;;
66145;SDS011;52948;60.040;30.320;2023-04-09T02:35:01;3.03;;;1.85;;
66145;SDS011;52948;60.040;30.320;2023-04-09T02:40:04;5.78;;;2.50;;
66145;SDS011;52948;60.040;30.320;2023-04-09T02:45:06;5.68;;;2.58;;
66145;SDS011;52948;60.040;30.320;2023-04-09T02:50:09;5.50;;;2.30;;
66145;SDS011;52948;60.040;30.320;2023-04-09T02:55:16;6.25;;;2.30;;
66145;SDS011;52948;60.040;30.320;2023-04-09T03:00:19;8.38;;;2.83;;
66145;SDS011;52948;60.040;30.320;2023-04-09T03:05:21;4.63;;;2.28;;
66145;SDS011;52948;60.040;30.320;2023-04-09T03:10:23;3.25;;;2.03;;
66145;SDS011;52948;60.040;30.320;2023-04-09T03:15:28;7.22;;;2.45;;
66145;SDS011;52948;60.040;30.320;2023-04-09T03:20:30;3.08;;;1.73;;
66145;SDS011;52948;60.040;30.320;2023-04-09T03:25:33;6.00;;;2.10;;
66145;SDS011;52948;60.040;30.320;2023-04-09T03:30:44;4.63;;;2.40;;
66145;SDS011;52948;60.040;30.320;2023-04-09T03:35:47;3.25;;;2.28;;
66145;SDS011;52948;60.040;30.320;2023-04-09T03:40:50;4.13;;;1.92;;
66145;SDS011;52948;60.040;30.320;2023-04-09T03:45:52;4.35;;;1.83;;
66145;SDS011;52948;60.040;30.320;2023-04-09T03:50:58;4.07;;;1.90;;
66145;SDS011;52948;60.040;30.320;2023-04-09T03:56:09;4.63;;;1.67;;
66145;SDS011;52948;60.040;30.320;2023-04-09T04:01:12;2.88;;;1.52;;
66145;SDS011;52948;60.040;30.320;2023-04-09T04:06:24;3.13;;;1.75;;
66145;SDS011;52948;60.040;30.320;2023-04-09T04:11:44;3.92;;;1.52;;
66145;SDS011;52948;60.040;30.320;2023-04-09T04:16:47;5.25;;;2.08;;
66145;SDS011;52948;60.040;30.320;2023-04-09T04:21:53;5.70;;;2.10;;
66145;SDS011;52948;60.040;30.320;2023-04-09T04:26:55;7.35;;;1.80;;
66145;SDS011;52948;60.040;30.320;2023-04-09T04:31:58;4.65;;;1.92;;
66145;SDS011;52948;60.040;30.320;2023-04-09T04:37:06;5.97;;;1.90;;
66145;SDS011;52948;60.040;30.320;2023-04-09T04:42:09;4.70;;;1.85;;
66145;SDS011;52948;60.040;30.320;2023-04-09T04:47:12;4.53;;;2.03;;
66145;SDS011;52948;60.040;30.320;2023-04-09T04:52:14;6.00;;;2.15;;
66145;SDS011;52948;60.040;30.320;2023-04-09T04:57:20;6.40;;;2.15;;
66145;SDS011;52948;60.040;30.320;2023-04-09T05:02:22;6.70;;;2.17;;
66145;SDS011;52948;60.040;30.320;2023-04-09T05:07:43;6.75;;;2.15;;
66145;SDS011;52948;60.040;30.320;2023-04-09T05:12:45;4.47;;;2.00;;
66145;SDS011;52948;60.040;30.320;2023-04-09T05:17:54;6.82;;;1.92;;
66145;SDS011;52948;60.040;30.320;2023-04-09T05:22:57;4.85;;;2.20;;
66145;SDS011;52948;60.040;30.320;2023-04-09T05:28:05;5.38;;;2.10;;
66145;SDS011;52948;60.040;30.320;2023-04-09T05:33:09;5.45;;;2.30;;
66145;SDS011;52948;60.040;30.320;2023-04-09T05:38:12;7.80;;;2.28;;
66145;SDS011;52948;60.040;30.320;2023-04-09T05:43:19;5.10;;;2.33;;
66145;SDS011;52948;60.040;30.320;2023-04-09T05:48:23;3.47;;;2.17;;
66145;SDS011;52948;60.040;30.320;2023-04-09T05:53:27;7.50;;;2.20;;
66145;SDS011;52948;60.040;30.320;2023-04-09T05:58:31;7.57;;;2.20;;
66145;SDS011;52948;60.040;30.320;2023-04-09T06:03:34;4.97;;;2.28;;
66145;SDS011;52948;60.040;30.320;2023-04-09T06:08:36;4.85;;;2.00;;
66145;SDS011;52948;60.040;30.320;2023-04-09T06:13:39;9.25;;;2.35;;
66145;SDS011;52948;60.040;30.320;2023-04-09T06:18:44;6.13;;;2.40;;
66145;SDS011;52948;60.040;30.320;2023-04-09T06:23:47;6.95;;;2.83;;
66145;SDS011;52948;60.040;30.320;2023-04-09T06:28:51;7.95;;;2.53;;
66145;SDS011;52948;60.040;30.320;2023-04-09T06:33:56;7.78;;;2.25;;
66145;SDS011;52948;60.040;30.320;2023-04-09T06:38:58;5.32;;;2.28;;
66145;SDS011;52948;60.040;30.320;2023-04-09T06:44:02;7.05;;;2.35;;
66145;SDS011;52948;60.040;30.320;2023-04-09T06:49:05;4.45;;;1.90;;
66145;SDS011;52948;60.040;30.320;2023-04-09T06:54:07;7.88;;;2.55;;
66145;SDS011;52948;60.040;30.320;2023-04-09T06:59:09;7.68;;;2.22;;
66145;SDS011;52948;60.040;30.320;2023-04-09T07:04:13;4.80;;;1.73;;
66145;SDS011;52948;60.040;30.320;2023-04-09T07:09:17;2.97;;;1.88;;
66145;SDS011;52948;60.040;30.320;2023-04-09T07:14:20;5.38;;;1.90;;
66145;SDS011;52948;60.040;30.320;2023-04-09T07:19:22;2.17;;;1.50;;
66145;SDS011;52948;60.040;30.320;2023-04-09T07:24:25;4.80;;;1.42;;
66145;SDS011;52948;60.040;30.320;2023-04-09T07:29:27;4.25;;;2.20;;
66145;SDS011;52948;60.040;30.320;2023-04-09T07:34:30;1.90;;;1.55;;
66145;SDS011;52948;60.040;30.320;2023-04-09T07:39:32;3.60;;;1.77;;
66145;SDS011;52948;60.040;30.320;2023-04-09T07:44:35;5.63;;;1.70;;
66145;SDS011;52948;60.040;30.320;2023-04-09T07:49:37;5.03;;;1.42;;
66145;SDS011;52948;60.040;30.320;2023-04-09T07:54:39;5.07;;;1.55;;
66145;SDS011;52948;60.040;30.320;2023-04-09T07:59:42;8.27;;;1.52;;
66145;SDS011;52948;60.040;30.320;2023-04-09T08:04:44;4.47;;;1.27;;
66145;SDS011;52948;60.040;30.320;2023-04-09T08:09:47;4.07;;;1.27;;
66145;SDS011;52948;60.040;30.320;2023-04-09T08:14:49;2.92;;;1.40;;
66145;SDS011;52948;60.040;30.320;2023-04-09T08:19:51;9.05;;;1.52;;
66145;SDS011;52948;60.040;30.320;2023-04-09T08:24:54;4.10;;;1.20;;
66145;SDS011;52948;60.040;30.320;2023-04-09T08:29:58;5.23;;;1.33;;
66145;SDS011;52948;60.040;30.320;2023-04-09T08:35:00;6.35;;;1.75;;
66145;SDS011;52948;60.040;30.320;2023-04-09T08:40:03;4.28;;;1.30;;
66145;SDS011;52948;60.040;30.320;2023-04-09T08:45:05;6.85;;;1.88;;
66145;SDS011;52948;60.040;30.320;2023-04-09T08:50:08;3.55;;;1.33;;
66145;SDS011;52948;60.040;30.320;2023-04-09T08:55:11;5.43;;;1.77;;
66145;SDS011;52948;60.040;30.320;2023-04-09T09:00:13;4.00;;;1.33;;
66145;SDS011;52948;60.040;30.320;2023-04-09T09:05:16;4.00;;;1.50;;
66145;SDS011;52948;60.040;30.320;2023-04-09T09:10:18;1.65;;;0.95;;
66145;SDS011;52948;60.040;30.320;2023-04-09T09:15:23;0.98;;;0.88;;
66145;SDS011;52948;60.040;30.320;2023-04-09T09:20:29;10.50;;;2.25;;
66145;SDS011;52948;60.040;30.320;2023-04-09T09:25:36;5.88;;;1.20;;
66145;SDS011;52948;60.040;30.320;2023-04-09T09:30:39;4.93;;;1.40;;
66145;SDS011;52948;60.040;30.320;2023-04-09T09:35:46;1.58;;;1.13;;
66145;SDS011;52948;60.040;30.320;2023-04-09T09:40:49;3.03;;;1.40;;
66145;SDS011;52948;60.040;30.320;2023-04-09T09:45:53;5.53;;;1.40;;
66145;SDS011;52948;60.040;30.320;2023-04-09T09:50:55;2.72;;;1.40;;
66145;SDS011;52948;60.040;30.320;2023-04-09T09:55:57;1.20;;;1.10;;
66145;SDS011;52948;60.040;30.320;2023-04-09T10:01:00;6.90;;;1.35;;
66145;SDS011;52948;60.040;30.320;2023-04-09T10:06:04;4.88;;;1.48;;
66145;SDS011;52948;60.040;30.320;2023-04-09T10:11:07;2.17;;;1.20;;
66145;SDS011;52948;60.040;30.320;2023-04-09T10:16:09;2.25;;;1.17;;
66145;SDS011;52948;60.040;30.320;2023-04-09T10:26:27;3.38;;;0.90;;
66145;SDS011;52948;60.040;30.320;2023-04-09T10:31:44;4.13;;;1.40;;
66145;SDS011;52948;60.040;30.320;2023-04-09T10:36:57;1.02;;;0.82;;
66145;SDS011;52948;60.040;30.320;2023-04-09T10:42:03;5.75;;;1.10;;
66145;SDS011;52948;60.040;30.320;2023-04-09T10:47:10;4.20;;;1.80;;
66145;SDS011;52948;60.040;30.320;2023-04-09T10:52:13;1.80;;;1.02;;
66145;SDS011;52948;60.040;30.320;2023-04-09T10:57:18;3.97;;;1.00;;
66145;SDS011;52948;60.040;30.320;2023-04-09T11:07:39;4.75;;;1.20;;
66145;SDS011;52948;60.040;30.320;2023-04-09T11:12:42;1.98;;;1.05;;
66145;SDS011;52948;60.040;30.320;2023-04-09T11:17:45;3.53;;;0.90;;
66145;SDS011;52948;60.040;30.320;2023-04-09T11:22:48;3.22;;;1.00;;
66145;SDS011;52948;60.040;30.320;2023-04-09T11:27:52;2.25;;;0.90;;
66145;SDS011;52948;60.040;30.320;2023-04-09T11:32:55;1.30;;;0.90;;
66145;SDS011;52948;60.040;30.320;2023-04-09T11:37:57;1.70;;;1.10;;
66145;SDS011;52948;60.040;30.320;2023-04-09T11:42:59;1.65;;;0.90;;
66145;SDS011;52948;60.040;30.320;2023-04-09T11:48:03;4.25;;;1.23;;
66145;SDS011;52948;60.040;30.320;2023-04-09T11:53:19;3.80;;;1.00;;
66145;SDS011;52948;60.040;30.320;2023-04-09T11:58:24;0.93;;;0.80;;
66145;SDS011;52948;60.040;30.320;2023-04-09T12:03:27;2.92;;;1.13;;
66145;SDS011;52948;60.040;30.320;2023-04-09T12:08:35;2.10;;;1.08;;
66145;SDS011;52948;60.040;30.320;2023-04-09T12:13:38;2.92;;;1.10;;
66145;SDS011;52948;60.040;30.320;2023-04-09T12:18:49;5.05;;;1.13;;
66145;SDS011;52948;60.040;30.320;2023-04-09T12:23:53;4.25;;;1.20;;
66145;SDS011;52948;60.040;30.320;2023-04-09T12:28:57;11.43;;;2.90;;
66145;SDS011;52948;60.040;30.320;2023-04-09T12:34:00;2.92;;;1.10;;
66145;SDS011;52948;60.040;30.320;2023-04-09T12:39:04;3.10;;;1.08;;
66145;SDS011;52948;60.040;30.320;2023-04-09T12:44:08;5.13;;;1.30;;
66145;SDS011;52948;60.040;30.320;2023-04-09T12:49:25;2.42;;;1.63;;
66145;SDS011;52948;60.040;30.320;2023-04-09T12:54:48;3.70;;;1.10;;
66145;SDS011;52948;60.040;30.320;2023-04-09T12:59:50;6.03;;;1.40;;
66145;SDS011;52948;60.040;30.320;2023-04-09T13:04:52;1.55;;;0.90;;
66145;SDS011;52948;60.040;30.320;2023-04-09T13:10:14;2.30;;;1.10;;
66145;SDS011;52948;60.040;30.320;2023-04-09T13:15:40;2.60;;;0.90;;
66145;SDS011;52948;60.040;30.320;2023-04-09T13:21:06;3.00;;;1.30;;
66145;SDS011;52948;60.040;30.320;2023-04-09T13:26:11;3.63;;;1.42;;
66145;SDS011;52948;60.040;30.320;2023-04-09T13:31:31;4.80;;;1.35;;
66145;SDS011;52948;60.040;30.320;2023-04-09T13:36:37;8.10;;;1.52;;
66145;SDS011;52948;60.040;30.320;2023-04-09T13:41:42;3.00;;;1.13;;
66145;SDS011;52948;60.040;30.320;2023-04-09T13:47:04;8.10;;;1.88;;
66145;SDS011;52948;60.040;30.320;2023-04-09T13:52:24;2.25;;;1.35;;
66145;SDS011;52948;60.040;30.320;2023-04-09T13:57:46;2.13;;;0.82;;
66145;SDS011;52948;60.040;30.320;2023-04-09T14:02:52;4.00;;;1.45;;
66145;SDS011;52948;60.040;30.320;2023-04-09T14:07:54;4.47;;;1.10;;
66145;SDS011;52948;60.040;30.320;2023-04-09T14:12:57;2.42;;;1.20;;
66145;SDS011;52948;60.040;30.320;2023-04-09T14:17:59;2.55;;;1.15;;
66145;SDS011;52948;60.040;30.320;2023-04-09T14:23:02;4.55;;;1.30;;
66145;SDS011;52948;60.040;30.320;2023-04-09T14:28:04;2.40;;;1.23;;
66145;SDS011;52948;60.040;30.320;2023-04-09T14:33:06;7.65;;;1.17;;
66145;SDS011;52948;60.040;30.320;2023-04-09T14:38:08;3.50;;;1.27;;
66145;SDS011;52948;60.040;30.320;2023-04-09T14:43:11;2.83;;;1.13;;
66145;SDS011;52948;60.040;30.320;2023-04-09T14:48:13;3.97;;;0.90;;
66145;SDS011;52948;60.040;30.320;2023-04-09T14:53:15;1.88;;;1.08;;
66145;SDS011;52948;60.040;30.320;2023-04-09T14:58:18;2.95;;;1.10;;
66145;SDS011;52948;60.040;30.320;2023-04-09T15:03:21;1.30;;;1.15;;
66145;SDS011;52948;60.040;30.320;2023-04-09T15:08:24;3.17;;;0.82;;
66145;SDS011;52948;60.040;30.320;2023-04-09T15:13:26;2.22;;;1.10;;
66145;SDS011;52948;60.040;30.320;2023-04-09T15:18:29;2.90;;;1.10;;
66145;SDS011;52948;60.040;30.320;2023-04-09T15:23:31;3.80;;;1.30;;
66145;SDS011;52948;60.040;30.320;2023-04-09T15:28:36;2.78;;;1.20;;
66145;SDS011;52948;60.040;30.320;2023-04-09T15:33:40;3.80;;;1.60;;
66145;SDS011;52948;60.040;30.320;2023-04-09T15:38:43;2.17;;;1.30;;
66145;SDS011;52948;60.040;30.320;2023-04-09T15:43:45;3.35;;;1.42;;
66145;SDS011;52948;60.040;30.320;2023-04-09T15:48:48;6.15;;;1.67;;
66145;SDS011;52948;60.040;30.320;2023-04-09T15:53:51;2.90;;;1.38;;
66145;SDS011;52948;60.040;30.320;2023-04-09T15:58:54;4.30;;;1.73;;
66145;SDS011;52948;60.040;30.320;2023-04-09T16:03:56;3.17;;;1.23;;
66145;SDS011;52948;60.040;30.320;2023-04-09T16:08:58;3.00;;;1.40;;
66145;SDS011;52948;60.040;30.320;2023-04-09T16:14:00;4.55;;;1.50;;
66145;SDS011;52948;60.040;30.320;2023-04-09T16:19:12;3.80;;;1.23;;
66145;SDS011;52948;60.040;30.320;2023-04-09T16:24:49;6.35;;;1.30;;
66145;SDS011;52948;60.040;30.320;2023-04-09T16:29:51;1.67;;;1.35;;
66145;SDS011;52948;60.040;30.320;2023-04-09T16:34:53;1.67;;;1.10;;
66145;SDS011;52948;60.040;30.320;2023-04-09T16:39:57;1.20;;;0.75;;
66145;SDS011;52948;60.040;30.320;2023-04-09T16:44:59;3.10;;;1.38;;
66145;SDS011;52948;60.040;30.320;2023-04-09T16:50:05;7.30;;;1.42;;
66145;SDS011;52948;60.040;30.320;2023-04-09T16:55:11;2.50;;;0.32;;
66145;SDS011;52948;60.040;30.320;2023-04-09T17:00:13;1.40;;;0.75;;
66145;SDS011;52948;60.040;30.320;2023-04-09T17:05:18;4.40;;;1.45;;
66145;SDS011;52948;60.040;30.320;2023-04-09T17:10:20;3.83;;;1.00;;
66145;SDS011;52948;60.040;30.320;2023-04-09T17:15:22;5.15;;;1.63;;
66145;SDS011;52948;60.040;30.320;2023-04-09T17:20:25;2.15;;;0.85;;
66145;SDS011;52948;60.040;30.320;2023-04-09T17:25:30;7.32;;;1.48;;
66145;SDS011;52948;60.040;30.320;2023-04-09T17:30:33;2.95;;;1.58;;
66145;SDS011;52948;60.040;30.320;2023-04-09T17:35:35;8.38;;;1.85;;
66145;SDS011;52948;60.040;30.320;2023-04-09T17:40:38;2.38;;;1.30;;
66145;SDS011;52948;60.040;30.320;2023-04-09T17:45:40;8.02;;;2.50;;
66145;SDS011;52948;60.040;30.320;2023-04-09T17:50:48;13.20;;;3.85;;
66145;SDS011;52948;60.040;30.320;2023-04-09T18:00:52;5.20;;;2.47;;
66145;SDS011;52948;60.040;30.320;2023-04-09T18:05:56;3.72;;;2.10;;
66145;SDS011;52948;60.040;30.320;2023-04-09T18:10:58;3.13;;;1.30;;
66145;SDS011;52948;60.040;30.320;2023-04-09T18:16:07;3.90;;;1.77;;
66145;SDS011;52948;60.040;30.320;2023-04-09T18:21:10;7.43;;;1.67;;
66145;SDS011;52948;60.040;30.320;2023-04-09T18:26:12;5.90;;;2.22;;
66145;SDS011;52948;60.040;30.320;2023-04-09T18:31:14;3.97;;;1.60;;
66145;SDS011;52948;60.040;30.320;2023-04-09T18:36:17;1.75;;;1.60;;
66145;SDS011;52948;60.040;30.320;2023-04-09T18:41:20;5.55;;;1.70;;
66145;SDS011;52948;60.040;30.320;2023-04-09T18:46:25;5.20;;;1.83;;
66145;SDS011;52948;60.040;30.320;2023-04-09T18:51:28;3.17;;;2.08;;
66145;SDS011;52948;60.040;30.320;2023-04-09T18:56:31;7.22;;;2.63;;
66145;SDS011;52948;60.040;30.320;2023-04-09T19:01:33;4.20;;;2.40;;
66145;SDS011;52948;60.040;30.320;2023-04-09T19:06:35;5.22;;;2.40;;
66145;SDS011;52948;60.040;30.320;2023-04-09T19:11:38;5.07;;;3.45;;
66145;SDS011;52948;60.040;30.320;2023-04-09T19:16:40;6.05;;;2.58;;
66145;SDS011;52948;60.040;30.320;2023-04-09T19:21:44;8.65;;;3.92;;
66145;SDS011;52948;60.040;30.320;2023-04-09T19:26:47;4.40;;;2.50;;
66145;SDS011;52948;60.040;30.320;2023-04-09T19:31:51;3.63;;;2.40;;
66145;SDS011;52948;60.040;30.320;2023-04-09T19:36:53;5.85;;;2.35;;
66145;SDS011;52948;60.040;30.320;2023-04-09T19:41:57;6.80;;;2.90;;
66145;SDS011;52948;60.040;30.320;2023-04-09T19:47:00;4.85;;;2.72;;
66145;SDS011;52948;60.040;30.320;2023-04-09T19:52:06;4.65;;;2.50;;
66145;SDS011;52948;60.040;30.320;2023-04-09T19:57:08;5.80;;;2.45;;
66145;SDS011;52948;60.040;30.320;2023-04-09T20:02:11;5.90;;;2.33;;
66145;SDS011;52948;60.040;30.320;2023-04-09T20:07:13;5.22;;;2.30;;
66145;SDS011;52948;60.040;30.320;2023-04-09T20:12:17;5.50;;;1.80;;
66145;SDS011;52948;60.040;30.320;2023-04-09T20:17:22;6.10;;;2.13;;
66145;SDS011;52948;60.040;30.320;2023-04-09T20:22:25;5.57;;;2.30;;
66145;SDS011;52948;60.040;30.320;2023-04-09T20:27:27;6.15;;;2.50;;
66145;SDS011;52948;60.040;30.320;2023-04-09T20:32:29;3.42;;;2.30;;
66145;SDS011;52948;60.040;30.320;2023-04-09T20:37:32;4.72;;;2.13;;
66145;SDS011;52948;60.040;30.320;2023-04-09T20:42:34;4.85;;;2.35;;
66145;SDS011;52948;60.040;30.320;2023-04-09T20:47:36;4.85;;;2.35;;
66145;SDS011;52948;60.040;30.320;2023-04-09T20:52:39;6.80;;;2.30;;
66145;SDS011;52948;60.040;30.320;2023-04-09T20:57:41;5.30;;;3.10;;
66145;SDS011;52948;60.040;30.320;2023-04-09T21:02:44;6.18;;;2.30;;
66145;SDS011;52948;60.040;30.320;2023-04-09T21:07:46;6.38;;;2.30;;
66145;SDS011;52948;60.040;30.320;2023-04-09T21:12:48;4.90;;;2.38;;
66145;SDS011;52948;60.040;30.320;2023-04-09T21:17:51;8.88;;;2.33;;
66145;SDS011;52948;60.040;30.320;2023-04-09T21:22:53;7.63;;;2.80;;
66145;SDS011;52948;60.040;30.320;2023-04-09T21:27:55;4.78;;;2.08;;
66145;SDS011;52948;60.040;30.320;2023-04-09T21:32:58;5.78;;;2.83;;
66145;SDS011;52948;60.040;30.320;2023-04-09T21:38:04;5.40;;;2.38;;
66145;SDS011;52948;60.040;30.320;2023-04-09T21:43:06;4.78;;;2.00;;
66145;SDS011;52948;60.040;30.320;2023-04-09T21:48:10;4.25;;;1.77;;
66145;SDS011;52948;60.040;30.320;2023-04-09T21:53:13;5.47;;;2.30;;
66145;SDS011;52948;60.040;30.320;2023-04-09T21:58:16;6.90;;;2.40;;
66145;SDS011;52948;60.040;30.320;2023-04-09T22:03:18;5.43;;;2.63;;
66145;SDS011;52948;60.040;30.320;2023-04-09T22:08:20;5.18;;;2.78;;
66145;SDS011;52948;60.040;30.320;2023-04-09T22:13:22;3.88;;;2.35;;
66145;SDS011;52948;60.040;30.320;2023-04-09T22:18:24;3.25;;;1.95;;
66145;SDS011;52948;60.040;30.320;2023-04-09T22:23:26;5.13;;;2.22;;
66145;SDS011;52948;60.040;30.320;2023-04-09T22:28:28;6.38;;;1.88;;
66145;SDS011;52948;60.040;30.320;2023-04-09T22:33:31;2.88;;;1.77;;
66145;SDS011;52948;60.040;30.320;2023-04-09T22:38:33;8.80;;;2.00;;
66145;SDS011;52948;60.040;30.320;2023-04-09T22:43:35;7.25;;;3.10;;
66145;SDS011;52948;60.040;30.320;2023-04-09T22:48:37;7.07;;;2.15;;
66145;SDS011;52948;60.040;30.320;2023-04-09T22:53:40;2.70;;;1.55;;
66145;SDS011;52948;60.040;30.320;2023-04-09T22:58:43;4.57;;;1.75;;
66145;SDS011;52948;60.040;30.320;2023-04-09T23:03:45;4.07;;;2.05;;
66145;SDS011;52948;60.040;30.320;2023-04-09T23:08:47;6.20;;;2.92;;
66145;SDS011;52948;60.040;30.320;2023-04-09T23:13:49;2.70;;;1.80;;
66145;SDS011;52948;60.040;30.320;2023-04-09T23:18:51;5.57;;;2.03;;
66145;SDS011;52948;60.040;30.320;2023-04-09T23:23:54;3.70;;;1.70;;
66145;SDS011;52948;60.040;30.320;2023-04-09T23:28:56;3.45;;;1.88;;
66145;SDS011;52948;60.040;30.320;2023-04-09T23:33:58;3.13;;;1.73;;
66145;SDS011;52948;60.040;30.320;2023-04-09T23:39:00;3.22;;;2.03;;
66145;SDS011;52948;60.040;30.320;2023-04-09T23:44:04;5.13;;;1.77;;
66145;SDS011;52948;60.040;30.320;2023-04-09T23:49:06;4.10;;;1.77;;
66145;SDS011;52948;60.040;30.320;2023-04-09T23:54:08;2.60;;;1.70;;
66145;SDS011;52948;60.040;30.320;2023-04-09T23:59:11;3.05;;;1.60;;
